WADD/DPS METAR and TAF weather

Enter ICAO airport designator
Station Type Date Time Source
WADD METAR 2019/12/10 19:00 UTC NOAA

WADD 101900Z 33004KT 9999 FEW017 28/26 Q1009 NOSIG


Station Type Date Time Source
WADD Decoded METAR 2019/12/10 19:00 UTC NOAA

Station name not available
Dec 10, 2019 - 02:00 PM EST / 2019.12.10 1900 UTC
Wind: from the NNW (330 degrees) at 5 MPH (4 KT):0
Visibility: greater than 7 mile(s):0
Sky conditions: mostly clear
Temperature: 82 F (28 C)
Dew Point: 78 F (26 C)
Relative Humidity: 88%
Pressure (altimeter): 29.80 in. Hg (1009 hPa)
ob: WADD 101900Z 33004KT 9999 FEW017 28/26 Q1009 NOSIG
cycle: 19

Station Type Date Time Source
WADD TAF 2019/12/10 18:09 UTC NOAA

TAF TAF WADD 101700Z 1018/1118 VRB05KT 9999 SCT017
BECMG 1100/1102 19008KT

Example: see airport list